Time;durP1;ratioP1;P1;durP2;ratioP2;P2;SDS_P1;SDS_P2;PMS_P1;PMS_P2;Temp;Humidity;BMP_temperature;BMP_pressure;BME280_temperature;BME280_humidity;BME280_pressure;Samples;Min_cycle;Max_cycle;Signal;HPM_P1;HPM_P2
2022/05/02 00:01:06;;;;;;;11.03;10.13;;;;;;;10.06;96.48;98263.97;4976819;28;20228;-69
2022/05/02 00:03:32;;;;;;;11.67;10.47;;;;;;;9.95;97.25;98256.63;4978224;28;20216;-70
2022/05/02 00:05:59;;;;;;;12.10;10.90;;;;;;;9.93;97.64;98258.69;4975812;28;20232;-69
2022/05/02 00:08:25;;;;;;;12.60;11.40;;;;;;;9.92;97.95;98257.06;4976359;28;20236;-70
2022/05/02 00:10:51;;;;;;;12.10;11.10;;;;;;;9.91;97.37;98252.78;4977138;28;20219;-69
2022/05/02 00:13:18;;;;;;;12.67;11.10;;;;;;;9.85;97.50;98253.59;4976621;28;20299;-70
2022/05/02 00:15:46;;;;;;;12.80;10.97;;;;;;;9.73;98.19;98252.63;4976224;28;20686;-69
2022/05/02 00:18:12;;;;;;;10.53;9.60;;;;;;;9.96;96.05;98255.63;4975703;28;20294;-70
2022/05/02 00:20:39;;;;;;;11.10;10.03;;;;;;;9.67;97.90;98248.97;4975812;28;20244;-69
2022/05/02 00:23:08;;;;;;;11.47;10.37;;;;;;;9.44;99.31;98245.94;4976886;28;20259;-69
2022/05/02 00:25:36;;;;;;;11.83;10.73;;;;;;;9.34;100.00;98242.09;4977746;28;20236;-70
2022/05/02 00:28:03;;;;;;;12.30;11.00;;;;;;;9.23;100.00;98243.53;4975969;28;20234;-70
2022/05/02 00:30:31;;;;;;;11.47;10.47;;;;;;;9.27;100.00;98242.09;4977749;28;20204;-70
2022/05/02 00:32:58;;;;;;;11.83;10.73;;;;;;;9.24;100.00;98245.16;4976644;28;20210;-70
2022/05/02 00:35:25;;;;;;;11.33;10.23;;;;;;;9.10;100.00;98240.88;4976152;28;20208;-69
2022/05/02 00:37:52;;;;;;;10.93;9.90;;;;;;;9.12;100.00;98244.16;4977541;28;20234;-69
2022/05/02 00:40:19;;;;;;;11.70;10.57;;;;;;;9.05;100.00;98235.38;4976615;28;20208;-69
2022/05/02 00:42:47;;;;;;;12.50;11.40;;;;;;;9.10;100.00;98238.22;4976050;28;20287;-69
2022/05/02 00:45:16;;;;;;;11.20;10.13;;;;;;;9.18;100.00;98232.72;4977106;28;20682;-69
2022/05/02 00:47:50;;;;;;;12.33;11.20;;;;;;;9.32;100.00;98222.91;4975661;28;20239;-70
2022/05/02 00:50:16;;;;;;;11.97;10.80;;;;;;;9.22;100.00;98231.28;4976210;28;20208;-69
2022/05/02 00:52:42;;;;;;;12.67;11.47;;;;;;;9.22;100.00;98230.47;4975523;28;20208;-70
2022/05/02 00:55:09;;;;;;;11.47;10.47;;;;;;;9.25;100.00;98232.72;4975204;28;20207;-69
2022/05/02 00:57:35;;;;;;;12.00;10.87;;;;;;;9.15;100.00;98230.47;4974379;28;20228;-69
2022/05/02 01:00:04;;;;;;;11.73;10.63;;;;;;;9.20;100.00;98227.22;4975977;28;20207;-69
2022/05/02 01:02:31;;;;;;;11.50;10.23;;;;;;;9.20;100.00;98220.09;4975683;28;20219;-69
2022/05/02 01:04:57;;;;;;;12.53;11.33;;;;;;;9.23;100.00;98224.16;4977103;28;20208;-69
2022/05/02 01:07:22;;;;;;;11.93;10.90;;;;;;;9.21;100.00;98218.22;4976893;28;20242;-70
2022/05/02 01:09:51;;;;;;;11.87;10.77;;;;;;;9.22;100.00;98211.91;4973758;28;20212;-69
2022/05/02 01:12:20;;;;;;;11.10;10.10;;;;;;;9.22;100.00;98211.91;4977043;28;20582;-70
2022/05/02 01:14:49;;;;;;;11.60;10.50;;;;;;;9.23;100.00;98211.69;4973566;28;20668;-69
2022/05/02 01:17:16;;;;;;;11.97;11.00;;;;;;;9.26;100.00;98221.91;4975351;28;20224;-69
2022/05/02 01:19:44;;;;;;;11.53;10.37;;;;;;;9.18;100.00;98210.66;4974782;28;20212;-69
2022/05/02 01:22:10;;;;;;;11.90;10.80;;;;;;;9.26;100.00;98211.28;4974775;28;20204;-69
2022/05/02 01:24:41;;;;;;;11.30;10.30;;;;;;;9.22;100.00;98206.59;4975144;28;20237;-70
2022/05/02 01:27:09;;;;;;;12.20;10.80;;;;;;;9.19;100.00;98214.97;4957349;28;20232;-70
2022/05/02 01:29:38;;;;;;;12.60;11.43;;;;;;;9.24;100.00;98210.66;4957485;28;20216;-70
2022/05/02 01:32:07;;;;;;;12.20;11.00;;;;;;;9.31;100.00;98211.47;4957378;28;20237;-70
2022/05/02 01:34:34;;;;;;;12.00;10.80;;;;;;;9.36;100.00;98201.06;4957132;28;20208;-70
2022/05/02 01:37:04;;;;;;;12.00;10.90;;;;;;;9.40;100.00;98206.75;4975434;28;20228;-69
2022/05/02 01:39:31;;;;;;;12.37;11.20;;;;;;;9.40;100.00;98204.09;4976497;28;20208;-70
2022/05/02 01:42:01;;;;;;;13.07;11.80;;;;;;;9.46;100.00;98203.28;4974759;28;20217;-69
2022/05/02 01:44:28;;;;;;;14.23;11.33;;;;;;;9.44;100.00;98198.19;4976393;28;20203;-70
2022/05/02 01:46:55;;;;;;;12.30;11.10;;;;;;;9.31;100.00;98200.03;4975235;28;20234;-69
2022/05/02 01:49:22;;;;;;;11.80;10.70;;;;;;;9.27;100.00;98197.00;4975486;28;20204;-70
2022/05/02 01:51:49;;;;;;;11.90;10.80;;;;;;;9.22;100.00;98203.94;4976263;28;20215;-69
2022/05/02 01:54:16;;;;;;;13.23;11.97;;;;;;;9.26;100.00;98192.72;4974832;28;20216;-69
2022/05/02 01:56:43;;;;;;;12.40;11.27;;;;;;;9.26;100.00;98192.72;4974489;28;20545;-69
2022/05/02 01:59:09;;;;;;;11.47;10.47;;;;;;;9.16;100.00;98188.84;4974463;28;20204;-70
2022/05/02 02:01:35;;;;;;;11.23;10.33;;;;;;;9.13;100.00;98187.44;4974837;28;20218;-70
2022/05/02 02:05:48;;;;;;;11.73;10.70;;;;;;;9.14;100.00;98183.75;4974615;28;20211;-69
2022/05/02 02:06:50;;;;;;;11.83;10.73;;;;;;;9.06;100.00;98188.47;4975424;28;20259;-70
2022/05/02 02:09:16;;;;;;;12.07;10.90;;;;;;;9.01;100.00;98183.75;4973101;28;20216;-70
2022/05/02 02:11:43;;;;;;;12.10;10.90;;;;;;;9.02;100.00;98179.28;4974867;28;20211;-70
2022/05/02 02:14:09;;;;;;;11.77;10.67;;;;;;;9.05;100.00;98187.63;4973422;28;20211;-70
2022/05/02 02:16:36;;;;;;;12.87;11.67;;;;;;;9.11;100.00;98188.66;4975492;28;20211;-70
2022/05/02 02:19:04;;;;;;;12.37;11.13;;;;;;;9.01;100.00;98190.94;4974759;28;20227;-70
2022/05/02 02:21:32;;;;;;;12.33;11.07;;;;;;;8.87;100.00;98190.09;4974512;28;20702;-70
2022/05/02 02:23:59;;;;;;;12.17;11.00;;;;;;;8.90;100.00;98191.53;4972674;28;20212;-70
2022/05/02 02:26:26;;;;;;;12.50;11.40;;;;;;;8.92;100.00;98181.56;4972863;28;20229;-69
2022/05/02 02:28:52;;;;;;;12.60;11.30;;;;;;;8.95;100.00;98186.41;4975543;28;20235;-70
2022/05/02 02:31:18;;;;;;;12.27;11.13;;;;;;;8.96;100.00;98185.44;4973743;28;20200;-69
2022/05/02 02:33:45;;;;;;;11.87;10.70;;;;;;;8.93;100.00;98180.53;4975438;28;20219;-69
2022/05/02 02:36:11;;;;;;;12.20;11.20;;;;;;;8.92;100.00;98182.34;4974037;28;20215;-70
2022/05/02 02:38:37;;;;;;;12.10;11.00;;;;;;;8.96;100.00;98186.22;4974402;28;20235;-69
2022/05/02 02:41:04;;;;;;;12.50;11.30;;;;;;;8.97;100.00;98179.88;4972964;28;20212;-70
2022/05/02 02:43:30;;;;;;;12.53;11.20;;;;;;;8.94;100.00;98176.84;4975339;28;20208;-69
2022/05/02 02:45:56;;;;;;;12.30;11.20;;;;;;;8.96;100.00;98182.78;4973962;28;20698;-70
2022/05/02 02:48:23;;;;;;;12.30;11.30;;;;;;;8.94;100.00;98174.19;4972149;28;20236;-69
2022/05/02 02:50:49;;;;;;;12.13;11.03;;;;;;;9.02;100.00;98171.34;4974339;28;20215;-69
2022/05/02 02:53:15;;;;;;;12.73;11.53;;;;;;;9.01;100.00;98167.84;4974151;28;20219;-70
2022/05/02 02:55:42;;;;;;;12.53;11.40;;;;;;;9.05;100.00;98162.97;4974296;28;20207;-69
2022/05/02 02:58:08;;;;;;;12.83;11.53;;;;;;;9.00;100.00;98162.78;4974126;28;20231;-69
2022/05/02 03:00:34;;;;;;;11.90;10.80;;;;;;;9.09;100.00;98158.91;4974225;28;20216;-70
2022/05/02 03:03:01;;;;;;;13.20;12.00;;;;;;;9.14;100.00;98161.75;4975885;28;20561;-70
2022/05/02 03:08:11;;;;;;;11.83;10.83;;;;;;;9.11;100.00;98152.34;4974761;28;20567;-70
2022/05/02 03:10:38;;;;;;;11.90;10.90;;;;;;;9.19;100.00;98148.66;4973863;28;20203;-69
2022/05/02 03:13:05;;;;;;;12.67;11.57;;;;;;;9.22;100.00;98138.44;4974867;28;20222;-69
2022/05/02 03:15:33;;;;;;;12.07;10.67;;;;;;;9.22;100.00;98145.56;4973180;28;20223;-69
2022/05/02 03:17:59;;;;;;;11.93;10.93;;;;;;;9.23;100.00;98147.22;4975196;28;20224;-69
2022/05/02 03:20:25;;;;;;;13.37;11.87;;;;;;;9.22;100.00;98142.94;4972315;28;20203;-70
2022/05/02 03:22:52;;;;;;;12.50;11.20;;;;;;;9.23;100.00;98137.41;4974785;28;20208;-69
2022/05/02 03:25:18;;;;;;;12.50;11.33;;;;;;;9.29;100.00;98136.59;4973815;28;20200;-69
2022/05/02 03:27:44;;;;;;;13.20;11.90;;;;;;;9.30;100.00;98140.88;4973694;28;20240;-70
2022/05/02 03:30:11;;;;;;;12.17;11.10;;;;;;;9.30;100.00;98140.06;4975458;28;20216;-69
2022/05/02 03:32:37;;;;;;;13.83;12.50;;;;;;;9.35;100.00;98137.59;4973479;28;20207;-70
2022/05/02 03:35:04;;;;;;;13.97;12.70;;;;;;;9.35;100.00;98134.94;4974665;28;20211;-69
2022/05/02 03:37:31;;;;;;;14.07;12.73;;;;;;;9.40;100.00;98129.81;4972545;28;20225;-69
2022/05/02 03:39:57;;;;;;;12.73;11.63;;;;;;;9.40;100.00;98135.13;4973501;28;20234;-70
2022/05/02 03:42:23;;;;;;;12.27;11.17;;;;;;;9.38;100.00;98131.88;4973625;28;20212;-70
2022/05/02 03:44:51;;;;;;;13.00;11.70;;;;;;;9.46;100.00;98127.13;4974422;28;20227;-69
2022/05/02 03:47:18;;;;;;;13.13;11.87;;;;;;;9.34;100.00;98128.84;4973100;28;20239;-69
2022/05/02 03:49:44;;;;;;;16.03;11.87;;;;;;;9.38;100.00;98121.25;4974433;28;20211;-70
2022/05/02 03:52:10;;;;;;;13.17;11.87;;;;;;;9.39;100.00;98133.50;4973573;28;20212;-70
2022/05/02 03:54:37;;;;;;;14.20;12.90;;;;;;;9.42;100.00;98133.88;4974324;28;20211;-70
2022/05/02 03:57:03;;;;;;;13.27;12.07;;;;;;;9.43;100.00;98130.22;4973595;28;20224;-70
2022/05/02 03:59:30;;;;;;;13.27;11.87;;;;;;;9.44;100.00;98131.03;4974043;28;20219;-70
2022/05/02 04:01:56;;;;;;;13.70;12.33;;;;;;;9.50;100.00;98138.16;4973886;28;20567;-70
2022/05/02 04:04:23;;;;;;;13.80;12.50;;;;;;;9.47;100.00;98139.41;4972408;28;20219;-70
2022/05/02 04:06:49;;;;;;;13.30;12.00;;;;;;;9.45;100.00;98135.31;4972319;28;20228;-69
2022/05/02 04:09:15;;;;;;;12.80;11.40;;;;;;;9.47;100.00;98138.56;4973369;28;20208;-70
2022/05/02 04:11:42;;;;;;;13.20;12.00;;;;;;;9.48;100.00;98135.72;4974171;28;20219;-70
2022/05/02 04:14:08;;;;;;;14.77;13.40;;;;;;;9.46;100.00;98134.31;4974034;28;20211;-69
2022/05/02 04:16:35;;;;;;;15.13;13.73;;;;;;;9.34;100.00;98128.00;4972389;28;20223;-70
2022/05/02 04:19:01;;;;;;;16.10;14.50;;;;;;;9.36;100.00;98133.91;4973718;28;20738;-70
2022/05/02 04:21:28;;;;;;;15.40;13.80;;;;;;;9.43;100.00;98132.88;4971762;28;20571;-70
2022/05/02 04:23:54;;;;;;;16.03;14.57;;;;;;;9.38;100.00;98140.66;4971945;28;20219;-70
2022/05/02 04:26:20;;;;;;;15.33;13.83;;;;;;;9.44;100.00;98137.16;4973914;28;20239;-70
2022/05/02 04:28:47;;;;;;;16.10;14.60;;;;;;;9.45;100.00;98136.13;4972642;28;20224;-70
2022/05/02 04:31:13;;;;;;;14.67;13.23;;;;;;;9.40;100.00;98133.28;4975613;28;20208;-70
2022/05/02 04:33:40;;;;;;;16.10;14.57;;;;;;;9.46;100.00;98144.91;4976085;28;20219;-70
2022/05/02 04:36:07;;;;;;;15.90;14.40;;;;;;;9.45;100.00;98132.66;4975805;28;20235;-70
2022/05/02 04:38:34;;;;;;;18.33;16.47;;;;;;;9.50;100.00;98135.50;4975526;28;20224;-69
2022/05/02 04:41:00;;;;;;;18.63;16.93;;;;;;;9.52;99.71;98131.63;4974583;28;20200;-70
2022/05/02 04:43:26;;;;;;;17.67;15.97;;;;;;;9.52;99.53;98130.78;4976271;28;20291;-70
2022/05/02 04:45:53;;;;;;;18.40;16.60;;;;;;;9.54;100.00;98131.38;4977294;28;20214;-70
2022/05/02 04:48:20;;;;;;;17.97;16.27;;;;;;;9.59;99.74;98139.56;4975250;28;20231;-70
2022/05/02 04:50:46;;;;;;;18.63;16.83;;;;;;;9.64;100.00;98137.09;4976851;28;20216;-70
2022/05/02 04:53:13;;;;;;;18.27;16.47;;;;;;;9.69;98.74;98134.63;4976009;28;20212;-70
2022/05/02 04:55:39;;;;;;;18.53;16.83;;;;;;;9.68;98.35;98130.34;4976206;28;20204;-69
2022/05/02 04:58:05;;;;;;;18.63;16.93;;;;;;;9.71;97.57;98133.38;4976890;28;20228;-70
2022/05/02 05:00:32;;;;;;;18.00;16.40;;;;;;;9.74;97.32;98137.44;4975080;28;20699;-70
2022/05/02 05:02:58;;;;;;;18.57;16.70;;;;;;;9.73;97.16;98141.13;4976531;28;20211;-69
2022/05/02 05:05:25;;;;;;;16.97;15.27;;;;;;;9.80;97.24;98137.41;4975937;28;20212;-70
2022/05/02 05:07:51;;;;;;;16.60;14.90;;;;;;;9.78;96.61;98138.66;4974964;28;20236;-70
2022/05/02 05:10:18;;;;;;;15.97;14.57;;;;;;;9.77;96.96;98131.72;4975534;28;20210;-70
2022/05/02 05:13:17;;;;;;;18.30;15.50;;;;;;;9.88;96.61;98128.38;4967948;28;20203;-70
2022/05/02 05:16:24;;;;;;;17.97;15.50;;;;;;;9.92;96.62;98135.69;4962901;28;20211;-70
2022/05/02 05:19:13;;;;;;;16.57;14.93;;;;;;;10.11;96.36;98128.69;4949216;29;20229;-70
2022/05/02 05:21:58;;;;;;;15.67;14.17;;;;;;;10.30;95.39;98130.38;4968786;28;20196;-70
2022/05/02 05:24:49;;;;;;;16.10;14.40;;;;;;;10.29;97.24;98129.59;4975915;28;20202;-71
2022/05/02 05:27:47;;;;;;;16.20;14.70;;;;;;;10.55;94.66;98133.91;4956339;28;20277;-70
2022/05/02 05:30:13;;;;;;;15.17;13.63;;;;;;;10.63;93.35;98136.25;4956688;28;20209;-70
2022/05/02 05:33:15;;;;;;;15.87;14.37;;;;;;;10.57;94.40;98134.47;4970145;28;20239;-70
2022/05/02 05:35:45;;;;;;;16.17;14.47;;;;;;;10.55;92.89;98137.34;4973811;28;20210;-70
2022/05/02 05:38:18;;;;;;;17.90;15.47;;;;;;;10.64;93.09;98138.72;4974653;28;20773;-70
2022/05/02 05:40:52;;;;;;;16.53;14.93;;;;;;;10.45;94.22;98136.22;4975541;28;20208;-70
2022/05/02 05:43:36;;;;;;;17.30;15.60;;;;;;;10.54;93.80;98140.25;4972708;28;20730;-70
2022/05/02 05:46:24;;;;;;;16.50;14.93;;;;;;;10.73;93.12;98134.75;4976140;28;20200;-70
2022/05/02 05:48:59;;;;;;;17.27;15.77;;;;;;;10.73;95.25;98129.44;4956253;28;20241;-70
2022/05/02 05:51:37;;;;;;;18.27;16.53;;;;;;;10.75;94.75;98135.38;4957269;28;20212;-70
2022/05/02 05:54:27;;;;;;;17.37;15.57;;;;;;;10.89;94.46;98125.41;4974371;28;20624;-73
2022/05/02 05:57:31;;;;;;;17.17;15.47;;;;;;;10.96;93.68;98123.50;4975010;28;20223;-71
2022/05/02 06:00:16;;;;;;;17.20;15.60;;;;;;;11.03;93.22;98129.56;4975655;28;20683;-69
2022/05/02 06:03:10;;;;;;;17.03;15.50;;;;;;;11.06;93.11;98131.78;4974810;28;20286;-69
2022/05/02 06:05:48;;;;;;;16.50;14.80;;;;;;;11.13;92.80;98129.06;4975661;28;20207;-69
2022/05/02 06:08:21;;;;;;;16.97;15.30;;;;;;;11.12;92.57;98132.78;4974395;28;20232;-69
2022/05/02 06:10:52;;;;;;;17.50;15.70;;;;;;;11.12;92.88;98128.25;4974358;28;20679;-69
2022/05/02 06:13:20;;;;;;;17.40;15.67;;;;;;;11.05;93.46;98130.97;4974906;28;20215;-69
2022/05/02 06:18:56;;;;;;;16.80;15.30;;;;;;;11.16;92.98;98129.44;4975629;28;20208;-69
2022/05/02 06:21:26;;;;;;;17.27;15.57;;;;;;;11.30;92.53;98128.25;4973870;28;20211;-69
2022/05/02 06:23:58;;;;;;;17.10;15.47;;;;;;;11.21;92.53;98134.91;4974979;28;20320;-69
2022/05/02 06:26:26;;;;;;;17.37;15.67;;;;;;;11.36;92.05;98135.38;4974617;28;20209;-69
2022/05/02 06:28:53;;;;;;;17.43;15.67;;;;;;;11.57;91.87;98124.25;4975176;28;20315;-69
2022/05/02 06:34:24;;;;;;;18.90;17.10;;;;;;;11.64;90.78;98133.03;4974010;28;20302;-68
2022/05/02 06:37:09;;;;;;;17.93;16.23;;;;;;;11.73;89.73;98125.53;4974441;28;20200;-70
2022/05/02 06:43:29;;;;;;;16.63;14.93;;;;;;;12.06;89.63;98123.22;4959015;28;20231;-69
2022/05/02 06:46:12;;;;;;;19.37;15.87;;;;;;;12.25;87.83;98138.94;4975140;28;20198;-70
2022/05/02 06:48:39;;;;;;;17.80;15.93;;;;;;;12.25;87.31;98136.28;4972413;28;20241;-70
2022/05/02 06:51:10;;;;;;;17.53;15.77;;;;;;;12.16;87.38;98132.31;4974582;28;20326;-69
2022/05/02 06:54:05;;;;;;;17.73;15.90;;;;;;;12.29;86.20;98126.00;4972284;28;20213;-69
2022/05/02 06:57:07;;;;;;;18.60;16.70;;;;;;;12.67;83.05;98132.56;4955281;29;20637;-68
2022/05/02 06:59:40;;;;;;;18.07;16.37;;;;;;;12.50;85.93;98134.28;4970556;28;20231;-69
2022/05/02 07:02:13;;;;;;;18.20;16.47;;;;;;;12.61;84.75;98140.69;4973974;28;20265;-69
2022/05/02 07:04:52;;;;;;;19.70;17.33;;;;;;;12.77;85.34;98132.81;4973764;28;20305;-68
2022/05/02 07:07:51;;;;;;;17.60;15.97;;;;;;;12.64;84.00;98133.03;4974890;28;20635;-68
2022/05/02 07:10:26;;;;;;;18.07;16.37;;;;;;;12.93;83.42;98132.09;4974609;28;20199;-68
2022/05/02 07:12:59;;;;;;;18.53;16.73;;;;;;;12.92;83.75;98132.34;4974651;28;20206;-68
2022/05/02 07:15:50;;;;;;;18.47;16.63;;;;;;;13.03;82.02;98135.03;4974608;28;20195;-68
2022/05/02 07:18:58;;;;;;;18.90;17.20;;;;;;;13.09;81.68;98135.97;4974372;28;20238;-68
2022/05/02 07:21:38;;;;;;;18.43;16.40;;;;;;;12.69;81.33;98137.66;4938014;28;20214;-68
2022/05/02 07:24:23;;;;;;;19.60;17.70;;;;;;;12.78;82.35;98138.94;4974582;28;20195;-69
2022/05/02 07:27:06;;;;;;;20.17;17.83;;;;;;;12.87;83.57;98140.22;4974489;28;20195;-69
2022/05/02 07:29:35;;;;;;;18.80;17.10;;;;;;;12.89;83.17;98138.94;4974687;28;20213;-69
2022/05/02 07:32:04;;;;;;;18.97;17.17;;;;;;;13.16;81.57;98134.00;4975060;28;20208;-69
2022/05/02 07:34:31;;;;;;;19.83;17.83;;;;;;;13.06;81.20;98136.44;4974611;28;20218;-68
2022/05/02 07:36:59;;;;;;;18.60;16.83;;;;;;;13.38;81.44;98143.84;4974458;28;20208;-68
2022/05/02 07:39:26;;;;;;;19.13;17.40;;;;;;;13.42;80.31;98146.84;4974397;28;20214;-68
2022/05/02 07:41:53;;;;;;;18.80;16.97;;;;;;;13.30;80.59;98138.84;4974142;28;20218;-68
2022/05/02 07:44:24;;;;;;;18.77;17.07;;;;;;;13.48;80.57;98137.91;4973959;28;20211;-68
2022/05/02 07:46:53;;;;;;;19.30;17.40;;;;;;;13.53;80.78;98136.16;4973703;28;20557;-68
2022/05/02 07:49:24;;;;;;;18.27;16.40;;;;;;;13.81;77.34;98138.06;4974801;28;20199;-68
2022/05/02 07:51:52;;;;;;;19.03;17.17;;;;;;;13.63;78.34;98139.03;4974232;28;20266;-68
2022/05/02 07:54:26;;;;;;;18.67;16.90;;;;;;;13.57;79.24;98139.97;4973847;28;20683;-68
2022/05/02 07:56:58;;;;;;;18.33;16.53;;;;;;;13.78;77.97;98139.34;4974652;28;20191;-68
2022/05/02 07:59:45;;;;;;;19.33;17.47;;;;;;;14.07;75.92;98138.28;4974291;28;20197;-68
2022/05/02 08:02:11;;;;;;;18.47;16.73;;;;;;;13.89;75.43;98135.00;4973687;28;20219;-68
2022/05/02 08:04:38;;;;;;;18.53;16.77;;;;;;;14.00;75.50;98137.66;4974111;28;20212;-68
2022/05/02 08:07:30;;;;;;;18.43;16.70;;;;;;;14.38;75.16;98129.81;4976694;28;20571;-68
2022/05/02 08:10:25;;;;;;;18.00;16.30;;;;;;;14.35;72.81;98133.00;4977731;28;20204;-68
2022/05/02 08:12:58;;;;;;;18.20;16.53;;;;;;;14.47;72.58;98125.69;4977683;28;20199;-69
2022/05/02 08:15:41;;;;;;;19.17;17.37;;;;;;;14.75;71.78;98135.53;4977747;28;20204;-68
2022/05/02 08:18:13;;;;;;;17.73;15.93;;;;;;;14.36;71.60;98129.25;4974368;28;20226;-69
2022/05/02 08:20:46;;;;;;;18.07;16.47;;;;;;;14.73;72.69;98122.41;4977807;28;20211;-69
2022/05/02 08:29:40;;;;;;;18.47;16.73;;;;;;;14.48;71.08;98127.31;4977605;28;20231;-68
2022/05/02 08:32:10;;;;;;;17.90;16.20;;;;;;;14.68;71.23;98132.19;4977378;28;20215;-68
2022/05/02 08:34:39;;;;;;;17.80;16.03;;;;;;;14.74;68.81;98129.34;4977664;28;20292;-69
2022/05/02 08:37:15;;;;;;;17.07;15.60;;;;;;;14.54;66.68;98126.38;4976978;28;20250;-69
2022/05/02 08:40:10;;;;;;;17.17;15.50;;;;;;;14.30;68.57;98116.81;4976460;28;20196;-68
2022/05/02 08:42:55;;;;;;;16.37;14.83;;;;;;;14.96;69.64;98113.38;4976446;28;20196;-69
2022/05/02 08:45:35;;;;;;;17.20;15.60;;;;;;;15.30;68.20;98114.94;4977027;28;20219;-68
2022/05/02 08:48:16;;;;;;;15.90;14.47;;;;;;;15.56;66.90;98114.25;4975781;28;20238;-69
2022/05/02 08:51:01;;;;;;;16.23;14.67;;;;;;;15.49;68.27;98116.28;4977150;28;20212;-68
2022/05/02 08:53:46;;;;;;;16.60;15.10;;;;;;;15.30;62.95;98113.09;4977299;28;20192;-68
2022/05/02 08:56:49;;;;;;;14.33;13.03;;;;;;;15.14;63.33;98119.28;4976989;28;20192;-68
2022/05/02 08:59:44;;;;;;;15.33;13.87;;;;;;;15.13;65.58;98108.81;4962518;28;20184;-69
2022/05/02 09:02:22;;;;;;;15.60;14.10;;;;;;;15.54;65.40;98105.63;4977111;28;20193;-68
2022/05/02 09:05:10;;;;;;;15.73;14.17;;;;;;;15.44;63.13;98110.88;4976936;28;20577;-69
2022/05/02 09:07:53;;;;;;;14.60;11.73;;;;;;;16.10;62.44;98113.28;4976774;28;20332;-69
2022/05/02 09:10:33;;;;;;;14.13;12.83;;;;;;;16.08;60.24;98112.72;4976941;28;20207;-68
2022/05/02 09:13:37;;;;;;;14.43;13.10;;;;;;;16.07;61.92;98114.59;4976644;28;20188;-69
2022/05/02 09:16:18;;;;;;;14.93;13.53;;;;;;;16.15;63.19;98111.44;4976714;28;20214;-69
2022/05/02 09:19:02;;;;;;;15.77;14.27;;;;;;;16.61;62.39;98113.53;4975542;28;20655;-68
2022/05/02 09:21:42;;;;;;;15.83;14.30;;;;;;;16.49;62.43;98112.06;4975339;28;20654;-68
2022/05/02 09:24:14;;;;;;;15.40;14.00;;;;;;;16.44;57.92;98117.41;4975608;28;20196;-69
2022/05/02 09:27:15;;;;;;;15.20;13.77;;;;;;;15.95;62.76;98116.59;4976595;28;20211;-69
2022/05/02 09:29:59;;;;;;;15.20;13.77;;;;;;;16.01;61.97;98114.78;4976514;28;20192;-69
2022/05/02 09:32:46;;;;;;;15.47;13.83;;;;;;;16.17;61.78;98117.38;4974758;28;20196;-68
2022/05/02 09:35:19;;;;;;;13.70;12.40;;;;;;;15.80;59.11;98113.75;4976149;28;20725;-69
2022/05/02 09:38:00;;;;;;;14.40;12.90;;;;;;;15.98;60.82;98109.94;4975977;28;20232;-69
2022/05/02 09:40:44;;;;;;;12.27;11.07;;;;;;;15.84;57.80;98111.38;4976352;28;20203;-69
2022/05/02 09:50:10;;;;;;;12.53;11.43;;;;;;;16.96;56.43;98099.59;4976438;28;20187;-69
2022/05/02 09:53:17;;;;;;;10.63;9.73;;;;;;;17.25;57.03;98101.66;4976140;28;20223;-69
2022/05/02 09:58:57;;;;;;;11.93;10.77;;;;;;;17.11;56.25;98086.25;4975665;28;20211;-70
2022/05/02 10:01:28;;;;;;;11.53;10.37;;;;;;;17.05;56.00;98087.28;4975762;28;20189;-69
2022/05/02 10:04:00;;;;;;;10.70;9.73;;;;;;;17.77;55.72;98086.31;4975936;28;20214;-69
2022/05/02 10:06:43;;;;;;;11.30;10.30;;;;;;;17.54;53.84;98086.78;4975900;28;20204;-69
2022/05/02 10:09:23;;;;;;;10.07;9.07;;;;;;;17.46;56.61;98071.13;4975480;28;20687;-69
2022/05/02 10:12:08;;;;;;;7.33;6.63;;;;;;;17.69;50.84;98078.75;4975445;28;20636;-69
2022/05/02 10:15:03;;;;;;;7.80;7.10;;;;;;;17.96;50.52;98070.53;4975596;28;20192;-69
2022/05/02 10:17:32;;;;;;;8.73;7.93;;;;;;;18.27;51.80;98056.84;4975393;28;20584;-68
2022/05/02 10:20:16;;;;;;;9.20;8.20;;;;;;;18.35;51.18;98055.53;4976577;28;20216;-69
2022/05/02 10:22:52;;;;;;;8.37;7.57;;;;;;;18.21;49.93;98057.09;4975339;28;20221;-69
2022/05/02 10:25:52;;;;;;;6.83;6.23;;;;;;;18.16;50.01;98065.16;4975506;28;20216;-69
2022/05/02 10:28:42;;;;;;;7.83;7.13;;;;;;;18.01;50.60;98062.47;4974832;28;20298;-68
2022/05/02 10:31:25;;;;;;;8.20;7.50;;;;;;;18.19;50.88;98060.06;4975460;28;20200;-69
2022/05/02 10:33:53;;;;;;;8.60;7.80;;;;;;;17.98;54.12;98060.28;4975401;28;20192;-69
2022/05/02 10:36:29;;;;;;;9.10;8.20;;;;;;;18.25;50.64;98058.19;4975197;28;20208;-69
2022/05/02 10:39:01;;;;;;;7.83;7.13;;;;;;;18.56;49.12;98060.69;4975192;28;20223;-69
2022/05/02 10:41:28;;;;;;;6.17;5.57;;;;;;;18.59;46.87;98053.94;4975007;28;20223;-69
2022/05/02 10:44:04;;;;;;;6.80;6.20;;;;;;;18.24;47.59;98046.59;4973209;28;20218;-70
2022/05/02 10:46:32;;;;;;;6.47;5.87;;;;;;;18.38;48.91;98050.44;4974532;28;20200;-69
2022/05/02 10:49:15;;;;;;;5.93;5.43;;;;;;;18.43;48.43;98046.94;4955500;28;20228;-69
2022/05/02 10:52:16;;;;;;;6.10;5.47;;;;;;;18.59;45.78;98049.34;4954475;29;20544;-69
2022/05/02 10:54:51;;;;;;;6.00;5.40;;;;;;;18.45;45.23;98048.28;4950553;29;20209;-69
2022/05/02 10:57:31;;;;;;;8.20;7.33;;;;;;;18.62;45.84;98043.44;4955615;28;20319;-70
2022/05/02 11:00:09;;;;;;;7.13;6.53;;;;;;;18.65;47.84;98040.22;4955475;28;20549;-70
2022/05/02 11:02:42;;;;;;;6.10;5.60;;;;;;;18.67;48.02;98038.03;4955250;28;20604;-70
2022/05/02 11:05:15;;;;;;;6.57;5.90;;;;;;;18.70;48.21;98039.38;4955646;28;20192;-69
2022/05/02 11:08:07;;;;;;;6.03;5.53;;;;;;;18.39;48.76;98030.53;4955939;28;20232;-70
2022/05/02 11:11:04;;;;;;;6.20;5.70;;;;;;;18.87;48.90;98024.53;4954967;29;20200;-70
2022/05/02 11:13:44;;;;;;;6.77;6.00;;;;;;;18.97;45.99;98029.09;4954152;29;20659;-70
2022/05/02 11:16:17;;;;;;;6.23;5.63;;;;;;;19.10;45.79;98032.03;4955016;28;20678;-69
2022/05/02 11:22:16;;;;;;;6.17;5.67;;;;;;;18.11;47.14;98028.31;4955258;29;20548;-70
2022/05/02 11:25:07;;;;;;;6.50;5.90;;;;;;;18.04;48.42;98019.69;4955347;28;20203;-69
2022/05/02 11:28:11;;;;;;;5.90;5.30;;;;;;;18.39;48.98;98027.81;4955242;28;20249;-70
2022/05/02 11:30:51;;;;;;;6.13;5.60;;;;;;;17.74;48.44;98027.69;4954885;29;20208;-69
2022/05/02 11:33:31;;;;;;;5.63;5.20;;;;;;;18.01;48.01;98019.41;4955011;28;20199;-70
2022/05/02 11:36:02;;;;;;;6.57;5.30;;;;;;;18.32;48.17;98019.16;4955004;28;20197;-70
2022/05/02 11:38:44;;;;;;;6.57;5.77;;;;;;;18.53;47.74;98018.13;4954982;28;20235;-70
2022/05/02 11:41:18;;;;;;;6.43;5.20;;;;;;;18.49;48.40;98011.66;4957450;28;20193;-70
2022/05/02 11:43:46;;;;;;;6.40;5.73;;;;;;;18.96;48.94;98014.03;4958939;28;20208;-70
2022/05/02 11:46:21;;;;;;;7.60;5.83;;;;;;;18.98;49.50;98009.97;4958852;28;20208;-70
2022/05/02 11:48:50;;;;;;;7.03;5.50;;;;;;;19.40;46.77;98005.00;4958867;28;20306;-70
2022/05/02 11:51:47;;;;;;;6.40;5.77;;;;;;;19.12;45.87;98002.94;4958994;29;20208;-70
2022/05/02 11:54:33;;;;;;;6.20;5.60;;;;;;;18.85;46.40;98005.16;4953122;28;20216;-70
2022/05/02 11:57:07;;;;;;;5.50;5.00;;;;;;;18.67;48.40;98008.41;4958786;28;20287;-70
2022/05/02 11:59:51;;;;;;;7.27;6.37;;;;;;;18.55;49.58;98005.19;4958645;28;20629;-70
2022/05/02 12:02:38;;;;;;;6.10;5.50;;;;;;;18.49;48.24;98002.78;4958932;28;20193;-70
2022/05/02 12:05:12;;;;;;;5.90;5.37;;;;;;;18.33;50.71;98001.97;4958529;28;20193;-69
2022/05/02 12:07:41;;;;;;;6.43;5.80;;;;;;;18.60;51.31;98002.50;4958746;28;20323;-70
2022/05/02 12:10:09;;;;;;;7.60;6.50;;;;;;;18.77;47.26;98004.91;4958699;28;20225;-70
2022/05/02 12:12:36;;;;;;;6.27;5.77;;;;;;;19.03;45.63;97999.19;4958257;28;20213;-70
2022/05/02 12:15:09;;;;;;;5.97;5.47;;;;;;;18.49;47.44;98000.91;4958224;28;20219;-70
2022/05/02 12:17:59;;;;;;;5.77;5.20;;;;;;;18.57;48.85;98003.06;4958570;28;20774;-70
2022/05/02 12:20:40;;;;;;;5.60;5.10;;;;;;;18.47;48.94;97996.88;4949477;28;20209;-70
2022/05/02 12:23:11;;;;;;;5.00;4.60;;;;;;;18.52;48.48;97997.66;4958216;28;20652;-70
2022/05/02 12:25:49;;;;;;;4.40;4.00;;;;;;;18.62;48.50;97989.56;4958194;28;20641;-70